createdAt,value
2018-08-22T06:55:02.312Z,56.7
2018-08-22T06:55:52.355Z,56.7
2018-08-22T06:56:42.147Z,56.7
2018-08-22T06:57:32.255Z,56.7
2018-08-22T06:58:22.285Z,56.7
2018-08-22T06:59:12.075Z,56.6
2018-08-22T07:00:02.135Z,56.6
2018-08-22T07:00:52.531Z,56.6
2018-08-22T07:01:42.839Z,56.6
2018-08-22T07:02:32.413Z,56.6
2018-08-22T07:03:22.461Z,56.6
2018-08-22T07:04:13.033Z,56.6
2018-08-22T07:05:03.139Z,56.6
2018-08-22T07:05:52.025Z,56.6
2018-08-22T07:06:42.660Z,56.6
2018-08-22T07:07:32.711Z,56.5
2018-08-22T07:08:23.069Z,56.6
2018-08-22T07:09:12.851Z,56.5
2018-08-22T07:10:03.199Z,56.5
2018-08-22T07:10:53.242Z,56.5
2018-08-22T07:11:43.060Z,56.5
2018-08-22T07:12:32.881Z,56.5
2018-08-22T07:13:23.743Z,56.4
2018-08-22T07:14:14.006Z,56.5
2018-08-22T07:15:03.862Z,56.4
2018-08-22T07:15:53.893Z,56.4
2018-08-22T07:16:44.065Z,56.4
2018-08-22T07:17:34.007Z,56.4
2018-08-22T07:18:24.075Z,56.4
2018-08-22T07:19:14.165Z,56.4
2018-08-22T07:20:04.223Z,56.4
2018-08-22T07:20:54.764Z,56.4
2018-08-22T07:21:44.106Z,56.4
2018-08-22T07:22:33.598Z,56.4
2018-08-22T07:23:23.928Z,56.4
2018-08-22T07:24:14.563Z,56.3
2018-08-22T07:25:04.304Z,56.3
2018-08-22T07:25:54.698Z,56.3
2018-08-22T07:26:44.189Z,56.3
2018-08-22T07:27:34.232Z,56.3
2018-08-22T07:28:24.592Z,56.3
2018-08-22T07:29:14.412Z,56.3
2018-08-22T07:30:05.059Z,56.3
2018-08-22T07:30:55.063Z,56.3
2018-08-22T07:31:44.090Z,56.3
2018-08-22T07:32:34.641Z,56.3
2018-08-22T07:33:24.733Z,56.3
2018-08-22T07:34:15.123Z,56.2
2018-08-22T07:35:04.643Z,56.3
2018-08-22T07:35:56.193Z,56.2
2018-08-22T07:36:45.276Z,56.2
2018-08-22T07:37:35.594Z,56.2
2018-08-22T07:38:25.641Z,56.2
2018-08-22T07:39:15.722Z,56.2
2018-08-22T07:40:05.610Z,56.1
2018-08-22T07:40:55.574Z,56.1
2018-08-22T07:41:45.658Z,56.1
2018-08-22T07:42:35.726Z,56.1
2018-08-22T07:43:25.581Z,56.1
2018-08-22T07:44:15.585Z,56.1
2018-08-22T07:45:05.605Z,56.1
2018-08-22T07:45:56.229Z,56.1
2018-08-22T07:46:46.020Z,56.1
2018-08-22T07:47:36.454Z,56.1
2018-08-22T07:48:26.169Z,56.1
2018-08-22T07:49:16.278Z,56
2018-08-22T07:50:06.149Z,56.1
2018-08-22T07:50:55.028Z,56.1
2018-08-22T07:51:46.408Z,56.1
2018-08-22T07:52:36.803Z,56
2018-08-22T07:53:27.183Z,56
2018-08-22T07:54:16.883Z,56
2018-08-22T07:55:06.936Z,55.9
2018-08-22T07:55:56.528Z,55.9
2018-08-22T07:56:47.103Z,55.9
2018-08-22T07:57:36.878Z,55.9
2018-08-22T07:58:27.189Z,55.9
2018-08-22T07:59:17.284Z,55.9
2018-08-22T08:00:07.872Z,55.9
2018-08-22T08:00:57.113Z,55.9
2018-08-22T08:01:48.059Z,55.9
2018-08-22T08:02:37.600Z,55.9
2018-08-22T08:03:27.073Z,55.9
2018-08-22T08:04:17.652Z,55.9
2018-08-22T08:05:07.730Z,55.9
2018-08-22T08:05:57.875Z,55.8
2018-08-22T08:06:47.568Z,55.8
2018-08-22T08:07:37.657Z,55.8
2018-08-22T08:08:28.020Z,55.8
2018-08-22T08:09:16.960Z,55.8
2018-08-22T08:10:08.158Z,55.8
2018-08-22T08:10:58.345Z,55.8
2018-08-22T08:11:48.317Z,55.8
2018-08-22T08:12:38.064Z,55.8
2018-08-22T08:13:26.789Z,55.8
2018-08-22T08:14:18.431Z,55.8
2018-08-22T08:15:08.541Z,55.7
2018-08-22T08:15:57.825Z,55.7
2018-08-22T08:16:48.762Z,55.7
2018-08-22T08:17:38.240Z,55.7
2018-08-22T08:18:28.244Z,55.7
2018-08-22T08:19:18.861Z,55.7
2018-08-22T08:20:08.654Z,55.7
2018-08-22T08:20:58.719Z,55.7
2018-08-22T08:21:48.293Z,55.6
2018-08-22T08:22:38.366Z,55.6
2018-08-22T08:23:29.138Z,55.6
2018-08-22T08:24:18.199Z,55.6
2018-08-22T08:25:08.722Z,55.6
2018-08-22T08:25:59.097Z,55.6
2018-08-22T08:26:49.191Z,55.6
2018-08-22T08:27:39.461Z,55.6
2018-08-22T08:28:29.525Z,55.6
2018-08-22T08:29:19.600Z,55.6
2018-08-22T08:30:09.645Z,55.6
2018-08-22T08:30:59.463Z,55.6
2018-08-22T08:31:49.536Z,55.5
2018-08-22T08:32:39.585Z,55.5
2018-08-22T08:33:29.421Z,55.5
2018-08-22T08:34:19.733Z,55.4
2018-08-22T08:35:09.495Z,55.4
2018-08-22T08:36:00.112Z,55.4
2018-08-22T08:36:49.922Z,55.4
2018-08-22T08:37:40.300Z,55.3
2018-08-22T08:38:30.335Z,55.3
2018-08-22T08:39:20.430Z,55.3
2018-08-22T08:40:10.185Z,55.2
2018-08-22T08:41:00.271Z,55.1
2018-08-22T08:41:51.272Z,55.1
2018-08-22T08:42:40.920Z,55.1
2018-08-22T08:43:30.729Z,55.1
2018-08-22T08:44:20.250Z,55.1
2018-08-22T08:45:10.272Z,55
2018-08-22T08:46:00.143Z,55
2018-08-22T08:46:50.861Z,55.1
2018-08-22T08:47:41.034Z,55.1
2018-08-22T08:48:31.027Z,55.1
2018-08-22T08:49:21.329Z,55.2
2018-08-22T08:50:10.972Z,55.2
2018-08-22T08:51:01.309Z,55.3
2018-08-22T08:51:51.088Z,55.3
2018-08-22T08:52:40.917Z,55.3
2018-08-22T08:53:31.622Z,55.4
2018-08-22T08:54:21.433Z,55.5
2018-08-22T08:55:11.213Z,55.6
2018-08-22T08:56:01.940Z,55.6
2018-08-22T08:56:51.227Z,55.6
2018-08-22T08:57:40.978Z,55.7
2018-08-22T08:58:31.499Z,55.8
2018-08-22T09:15:48.036Z,56.9
2018-08-22T09:16:42.355Z,57
2018-08-22T09:18:39.546Z,57.2
2018-08-22T09:20:43.052Z,57.3
2018-08-22T09:21:34.162Z,57.4
2018-08-22T09:22:23.592Z,57.4
2018-08-22T09:23:12.904Z,57.5
2018-08-22T09:24:03.764Z,57.6
2018-08-22T09:24:53.605Z,57.6
2018-08-22T09:25:43.634Z,57.7
2018-08-22T09:27:23.498Z,57.8
2018-08-22T09:28:14.844Z,57.9
2018-08-22T09:29:03.879Z,57.9
2018-08-22T09:29:53.833Z,58
2018-08-22T09:30:43.474Z,58
2018-08-22T09:31:34.117Z,58.1
2018-08-22T09:32:24.160Z,58.1
2018-08-22T09:33:14.232Z,58.2
2018-08-22T09:34:03.480Z,58.3
2018-08-22T09:34:54.363Z,58.3
2018-08-22T09:35:43.855Z,58.4
2018-08-22T09:36:34.761Z,58.4
2018-08-22T09:37:24.291Z,58.5
2018-08-22T09:39:04.413Z,58.6
2018-08-22T09:39:55.099Z,58.7
2018-08-22T09:40:44.607Z,58.8
2018-08-22T09:41:34.842Z,58.8
2018-08-22T09:42:24.391Z,58.9
2018-08-22T09:43:15.307Z,58.9
2018-08-22T09:44:04.483Z,59
2018-08-22T09:44:54.838Z,59.1
2018-08-22T09:45:45.003Z,59.1
2018-08-22T09:46:35.383Z,59.2
2018-08-22T09:47:25.005Z,59.3
2018-08-22T09:48:15.086Z,59.3
2018-08-22T09:49:05.186Z,59.4
2018-08-22T09:49:55.525Z,59.4
2018-08-22T09:50:45.912Z,59.4
2018-08-22T09:51:35.663Z,59.5
2018-08-22T09:52:25.415Z,59.6
2018-08-22T09:53:15.746Z,59.6
2018-08-22T09:54:05.266Z,59.7
2018-08-22T09:54:55.335Z,59.8
2018-08-22T09:55:45.670Z,59.8
2018-08-22T09:56:35.741Z,59.9
2018-08-22T09:57:25.243Z,59.9
2018-08-22T09:58:16.447Z,60
2018-08-22T09:59:06.271Z,60.1
2018-08-22T09:59:56.305Z,60.1
2018-08-22T10:00:47.253Z,60.2
2018-08-22T10:01:36.137Z,60.3
2018-08-22T10:02:26.521Z,60.3
2018-08-22T10:03:16.282Z,60.3
2018-08-22T10:04:05.775Z,60.4
2018-08-22T10:04:56.140Z,60.4
2018-08-22T10:05:46.460Z,60.6
2018-08-22T10:06:37.725Z,60.6
2018-08-22T10:07:26.753Z,60.7
2018-08-22T10:08:16.107Z,60.7
2018-08-22T10:09:07.053Z,60.8
2018-08-22T10:09:56.888Z,60.9
2018-08-22T10:10:47.112Z,60.9
2018-08-22T10:11:36.899Z,60.9
2018-08-22T10:12:27.277Z,61
2018-08-22T10:13:16.777Z,61.1
2018-08-22T10:14:07.379Z,61.1
2018-08-22T10:14:56.706Z,61.2
2018-08-22T10:15:47.504Z,61.3
2018-08-22T10:16:37.573Z,61.3
2018-08-22T10:17:28.253Z,61.4
2018-08-22T10:18:17.724Z,61.4
2018-08-22T10:19:07.564Z,61.5
2018-08-22T10:19:57.830Z,61.5
2018-08-22T10:20:47.631Z,61.6
2018-08-22T10:21:37.955Z,61.6
2018-08-22T10:22:28.011Z,61.7
2018-08-22T10:23:18.109Z,61.8
2018-08-22T10:24:08.177Z,61.8
2018-08-22T10:24:58.254Z,61.9
2018-08-22T10:25:48.048Z,61.9
2018-08-22T10:26:38.889Z,62
2018-08-22T10:27:27.875Z,62
2018-08-22T10:28:18.252Z,62.1
2018-08-22T10:29:08.537Z,62.1
2018-08-22T10:29:58.329Z,62.2
2018-08-22T10:30:48.131Z,62.3
2018-08-22T10:31:38.747Z,62.3
2018-08-22T10:32:28.840Z,62.4
2018-08-22T10:33:18.882Z,62.4
2018-08-22T10:34:08.989Z,62.4
2018-08-22T10:34:59.044Z,62.5
2018-08-22T10:35:49.140Z,62.5
2018-08-22T10:36:39.136Z,62.6
2018-08-22T10:37:29.227Z,62.6
2018-08-22T10:38:19.003Z,62.7
2018-08-22T10:39:09.070Z,62.7
2018-08-22T10:39:59.124Z,62.8
2018-08-22T10:40:49.462Z,62.8
2018-08-22T10:41:38.791Z,62.9
2018-08-22T10:42:29.611Z,62.9
2018-08-22T10:43:19.422Z,63
2018-08-22T10:44:09.477Z,63.1
2018-08-22T10:44:59.541Z,63.1
2018-08-22T10:45:49.588Z,63.1
2018-08-22T10:46:39.931Z,63.2
2018-08-22T10:47:28.893Z,63.3
2018-08-22T10:48:19.694Z,63.3
2018-08-22T10:49:09.000Z,63.3
2018-08-22T10:49:59.635Z,63.4
2018-08-22T10:50:50.008Z,63.4
2018-08-22T10:51:40.067Z,63.4
2018-08-22T10:52:30.429Z,63.5
2018-08-22T10:53:20.478Z,63.6
2018-08-22T10:54:10.559Z,63.6
2018-08-22T10:55:00.303Z,63.6
2018-08-22T10:55:50.622Z,63.7
2018-08-22T10:56:40.703Z,63.8
2018-08-22T10:57:30.761Z,63.8
2018-08-22T10:58:20.826Z,63.8
2018-08-22T10:59:10.895Z,63.9
2018-08-22T11:00:00.975Z,63.9
2018-08-22T11:00:51.018Z,63.9
2018-08-22T11:01:41.100Z,64
2018-08-22T11:02:31.172Z,64.1
2018-08-22T11:03:20.952Z,64.1
2018-08-22T11:04:11.284Z,64.1
2018-08-22T11:05:01.356Z,64.1
2018-08-22T11:05:51.419Z,64.1
2018-08-22T11:06:41.492Z,64.1
2018-08-22T11:07:31.307Z,64.1
2018-08-22T11:08:21.591Z,64.2
2018-08-22T11:09:11.675Z,64.2
2018-08-22T11:10:02.753Z,64.2
2018-08-22T11:10:51.813Z,64.2
2018-08-22T11:11:41.874Z,64.2
2018-08-22T11:12:31.929Z,64.2
2018-08-22T11:13:21.477Z,64.2
2018-08-22T11:14:12.096Z,64.2
2018-08-22T11:15:02.159Z,64.2
2018-08-22T11:15:53.165Z,64.2
2018-08-22T11:16:41.722Z,64.2
2018-08-22T11:17:31.791Z,64.2
2018-08-22T11:18:22.148Z,64.3
2018-08-22T11:19:11.968Z,64.3
2018-08-22T11:20:01.707Z,64.3
2018-08-22T11:20:52.601Z,64.3
2018-08-22T11:21:42.426Z,64.3
2018-08-22T11:22:33.356Z,64.3
2018-08-22T11:23:22.533Z,64.3
2018-08-22T11:24:12.869Z,64.3
2018-08-22T11:25:02.376Z,64.3
2018-08-22T11:25:52.736Z,64.2
2018-08-22T11:26:42.846Z,64.3
2018-08-22T11:27:32.832Z,64.3
2018-08-22T11:28:23.175Z,64.3
2018-08-22T11:29:13.010Z,64.3
2018-08-22T11:30:02.837Z,64.3
2018-08-22T11:30:53.414Z,64.3
2018-08-22T11:31:43.435Z,64.3
2018-08-22T11:32:33.235Z,64.3
2018-08-22T11:33:23.307Z,64.3
2018-08-22T11:34:13.616Z,64.3
2018-08-22T11:35:03.717Z,64.3
2018-08-22T11:35:53.807Z,64.3
2018-08-22T11:36:43.013Z,64.3
2018-08-22T11:37:33.909Z,64.3
2018-08-22T11:38:23.946Z,64.3
2018-08-22T11:39:14.010Z,64.3
2018-08-22T11:40:04.108Z,64.3
2018-08-22T11:40:53.892Z,64.3
2018-08-22T11:41:43.960Z,64.3
2018-08-22T11:42:34.010Z,64.3
2018-08-22T11:43:24.375Z,64.3
2018-08-22T11:44:14.128Z,64.4
2018-08-22T11:45:03.369Z,64.4
2018-08-22T11:45:53.433Z,64.4
2018-08-22T11:46:45.188Z,64.4
2018-08-22T11:47:34.658Z,64.4
2018-08-22T11:48:24.767Z,64.4
2018-08-22T11:49:14.555Z,64.4
2018-08-22T11:50:04.898Z,64.5
2018-08-22T11:50:54.678Z,64.5
2018-08-22T11:51:44.223Z,64.5
2018-08-22T11:52:34.543Z,64.5
2018-08-22T11:53:25.161Z,64.6
2018-08-22T11:54:15.222Z,64.6
2018-08-22T11:55:05.316Z,64.6
2018-08-22T11:55:55.160Z,64.7
2018-08-22T11:56:45.425Z,64.7
2018-08-22T11:57:35.326Z,64.7
2018-08-22T11:58:25.527Z,64.8
2018-08-22T11:59:15.628Z,64.8
2018-08-22T12:00:05.716Z,64.8
2018-08-22T12:00:55.197Z,64.8
2018-08-22T12:01:45.926Z,64.9
2018-08-22T12:02:35.332Z,64.9
2018-08-22T12:03:25.915Z,64.9
2018-08-22T12:04:16.058Z,65
2018-08-22T12:05:06.076Z,65
2018-08-22T12:05:56.140Z,65.1
2018-08-22T12:06:46.173Z,65.1
2018-08-22T12:07:36.259Z,65.1
2018-08-22T12:08:26.042Z,65.1
2018-08-22T12:09:16.375Z,65.2
2018-08-22T12:10:06.171Z,65.2
2018-08-22T12:10:56.222Z,65.3
2018-08-22T12:11:45.739Z,65.3
2018-08-22T12:12:36.371Z,65.3
2018-08-22T12:13:26.692Z,65.3
2018-08-22T12:14:16.765Z,65.3
2018-08-22T12:15:06.833Z,65.4
2018-08-22T12:15:56.960Z,65.4
2018-08-22T12:16:46.949Z,65.4
2018-08-22T12:17:36.772Z,65.4
2018-08-22T12:18:26.815Z,65.4
2018-08-22T12:19:16.859Z,65.4
2018-08-22T12:20:07.217Z,65.5
2018-08-22T12:20:57.000Z,65.5
2018-08-22T12:21:47.114Z,65.5
2018-08-22T12:22:37.404Z,65.5
2018-08-22T12:23:28.457Z,65.5
2018-08-22T12:24:17.263Z,65.6
2018-08-22T12:25:07.623Z,65.6
2018-08-22T12:25:57.667Z,65.6
2018-08-22T12:26:47.466Z,65.6
2018-08-22T12:27:37.254Z,65.6
2018-08-22T12:28:27.887Z,65.6
2018-08-22T12:29:17.951Z,65.6
2018-08-22T12:30:08.008Z,65.6
2018-08-22T12:30:57.559Z,65.6
2018-08-22T12:31:47.600Z,65.6
2018-08-22T12:32:37.668Z,65.7
2018-08-22T12:33:28.051Z,65.7
2018-08-22T12:34:18.081Z,65.7
2018-08-22T12:35:07.833Z,65.7
2018-08-22T12:35:57.920Z,65.7
2018-08-22T12:36:48.291Z,65.8
2018-08-22T12:37:37.866Z,65.8
2018-08-22T12:38:28.112Z,65.8
2018-08-22T12:39:18.707Z,65.8
2018-08-22T12:40:08.517Z,65.8
2018-08-22T12:40:58.832Z,65.8
2018-08-22T12:41:48.922Z,65.8
2018-08-22T12:42:38.482Z,65.8
2018-08-22T12:43:29.094Z,65.8
2018-08-22T12:44:18.551Z,65.8
2018-08-22T12:45:09.164Z,65.8
2018-08-22T12:45:59.238Z,65.8
2018-08-22T12:46:49.301Z,65.8
2018-08-22T12:47:39.333Z,65.8
2018-08-22T12:48:29.439Z,65.8
2018-08-22T12:49:19.488Z,65.8
2018-08-22T12:50:09.269Z,65.8
2018-08-22T12:50:59.331Z,65.8
2018-08-22T12:51:49.151Z,65.8
2018-08-22T12:52:39.737Z,65.8
2018-08-22T12:53:29.549Z,65.8
2018-08-22T12:54:19.336Z,65.8
2018-08-22T12:55:09.949Z,65.8
2018-08-22T12:56:00.012Z,65.8
2018-08-22T12:56:50.135Z,65.8
2018-08-22T12:57:39.917Z,65.7
2018-08-22T12:58:29.662Z,65.8
2018-08-22T12:59:20.024Z,65.8
2018-08-22T13:00:10.105Z,65.8
2018-08-22T13:01:00.447Z,65.7
2018-08-22T13:01:50.504Z,65.7
2018-08-22T13:02:39.735Z,65.8
2018-08-22T13:03:30.366Z,65.8
2018-08-22T13:04:20.431Z,65.8
2018-08-22T13:05:09.917Z,65.8
2018-08-22T13:06:00.287Z,65.8
2018-08-22T13:06:50.910Z,65.8
2018-08-22T13:07:40.694Z,65.8
2018-08-22T13:08:30.744Z,65.8
2018-08-22T13:09:20.591Z,65.8
2018-08-22T13:10:10.309Z,65.8
2018-08-22T13:11:01.019Z,65.8
2018-08-22T13:11:51.289Z,65.8
2018-08-22T13:12:41.065Z,65.8
2018-08-22T13:13:30.888Z,65.8
2018-08-22T13:14:21.524Z,65.7
2018-08-22T13:15:11.268Z,65.7
2018-08-22T13:16:01.047Z,65.7
2018-08-22T13:16:51.312Z,65.7
2018-08-22T13:17:41.463Z,65.8
2018-08-22T13:18:31.542Z,65.7
2018-08-22T13:19:21.570Z,65.7
2018-08-22T13:20:11.418Z,65.7
2018-08-22T13:21:01.998Z,65.7
2018-08-22T13:21:51.520Z,65.7
2018-08-22T13:22:41.857Z,65.7
2018-08-22T13:23:31.623Z,65.7
2018-08-22T13:24:21.829Z,65.7
2018-08-22T13:25:11.470Z,65.7
2018-08-22T13:26:02.096Z,65.7
2018-08-22T13:26:51.924Z,65.6
2018-08-22T13:27:42.238Z,65.6
2018-08-22T13:28:32.605Z,65.6
2018-08-22T13:29:21.547Z,65.6
2018-08-22T13:30:12.195Z,65.6
2018-08-22T13:31:02.788Z,65.6
2018-08-22T13:31:52.590Z,65.6
2018-08-22T13:32:42.644Z,65.6
2018-08-22T13:33:32.479Z,65.6
2018-08-22T13:34:22.836Z,65.6
2018-08-22T13:35:12.576Z,65.6
2018-08-22T13:36:03.113Z,65.6
2018-08-22T13:36:53.231Z,65.6
2018-08-22T13:37:43.348Z,65.6
2018-08-22T13:38:33.398Z,65.6
2018-08-22T13:39:23.144Z,65.6
2018-08-22T13:40:13.701Z,65.6
2018-08-22T13:41:03.579Z,65.6
2018-08-22T13:41:53.619Z,65.6
2018-08-22T13:42:43.675Z,65.6
2018-08-22T13:43:33.196Z,65.6
2018-08-22T13:44:23.823Z,65.5
2018-08-22T13:45:13.611Z,65.5
2018-08-22T13:46:03.991Z,65.5
2018-08-22T13:46:54.009Z,65.5
2018-08-22T13:47:44.077Z,65.5
2018-08-22T13:48:34.123Z,65.5
2018-08-22T13:49:23.643Z,65.5
2018-08-22T13:50:14.007Z,65.5
2018-08-22T13:51:03.775Z,65.5
2018-08-22T13:51:54.291Z,65.5
2018-08-22T13:52:44.478Z,65.5
2018-08-22T13:53:34.551Z,65.4
2018-08-22T13:54:24.626Z,65.5
2018-08-22T13:55:14.133Z,65.4
2018-08-22T13:56:05.599Z,65.4
2018-08-22T13:56:54.831Z,65.4
2018-08-22T13:57:44.872Z,65.4
2018-08-22T13:58:34.945Z,65.4
2018-08-22T13:59:25.032Z,65.4
2018-08-22T14:00:15.101Z,65.4
2018-08-22T14:01:05.145Z,65.4
2018-08-22T14:01:56.064Z,65.4
2018-08-22T14:02:45.268Z,65.4
2018-08-22T14:03:35.060Z,65.4
2018-08-22T14:04:24.585Z,65.4
2018-08-22T14:05:15.480Z,65.4
2018-08-22T14:06:05.552Z,65.4
2018-08-22T14:06:55.595Z,65.4
2018-08-22T14:07:45.444Z,65.4
2018-08-22T14:08:35.477Z,65.4
2018-08-22T14:09:25.812Z,65.4
2018-08-22T14:10:15.891Z,65.4
2018-08-22T14:11:05.921Z,65.3
2018-08-22T14:11:55.960Z,65.3
2018-08-22T14:12:46.046Z,65.4
2018-08-22T14:13:35.582Z,65.4
2018-08-22T14:14:25.635Z,65.3
2018-08-22T14:15:16.299Z,65.3
2018-08-22T14:16:06.180Z,65.3
2018-08-22T14:16:56.086Z,65.3
2018-08-22T14:17:46.469Z,65.3
2018-08-22T14:18:36.509Z,65.3
2018-08-22T14:19:26.612Z,65.3
2018-08-22T14:20:16.341Z,65.3
2018-08-22T14:21:06.128Z,65.3
2018-08-22T14:21:56.742Z,65.3
2018-08-22T14:22:46.831Z,65.3
2018-08-22T14:23:36.634Z,65.3
2018-08-22T14:24:26.699Z,65.3
2018-08-22T14:25:16.809Z,65.3
2018-08-22T14:26:07.076Z,65.3
2018-08-22T14:26:57.141Z,65.3
2018-08-22T14:27:47.202Z,65.3
2018-08-22T14:28:37.281Z,65.3
2018-08-22T14:29:27.559Z,65.3
2018-08-22T14:30:17.574Z,65.2
2018-08-22T14:31:07.505Z,65.2
2018-08-22T14:31:57.801Z,65.2
2018-08-22T14:32:47.618Z,65.2
2018-08-22T14:33:38.108Z,65.2
2018-08-22T14:34:27.766Z,65.2
2018-08-22T14:35:17.248Z,65.2
2018-08-22T14:36:07.926Z,65.2
2018-08-22T14:36:57.670Z,65.2
2018-08-22T14:37:48.001Z,65.2
2018-08-22T14:38:38.093Z,65.2
2018-08-22T14:39:28.013Z,65.2
2018-08-22T14:40:17.665Z,65.1
2018-08-22T14:41:08.296Z,65.1
2018-08-22T14:41:58.068Z,65.1
2018-08-22T14:42:47.639Z,65.1
2018-08-22T14:43:38.497Z,65.1
2018-08-22T14:44:27.715Z,65.1
2018-08-22T14:45:18.330Z,65.1
2018-08-22T14:46:08.658Z,65.1
2018-08-22T14:46:58.660Z,65.1
2018-08-22T14:47:48.786Z,65.1
2018-08-22T14:48:38.860Z,65.1
2018-08-22T14:49:28.931Z,65.1
2018-08-22T14:50:18.981Z,65.1
2018-08-22T14:51:09.057Z,65.1
2018-08-22T14:51:58.557Z,65.1
2018-08-22T14:52:48.892Z,65.1
2018-08-22T14:53:39.000Z,65.1
2018-08-22T14:54:29.298Z,65.1
2018-08-22T14:55:19.385Z,65.1
2018-08-22T14:56:10.316Z,65.1
2018-08-22T14:56:59.521Z,65
2018-08-22T14:57:49.592Z,65
2018-08-22T14:58:39.382Z,65
2018-08-22T14:59:29.742Z,65
2018-08-22T15:00:19.514Z,65
2018-08-22T15:01:09.550Z,65
2018-08-22T15:01:59.631Z,65
2018-08-22T15:02:51.954Z,65
2018-08-22T15:03:41.030Z,65
2018-08-22T15:04:29.285Z,65
2018-08-22T15:05:19.922Z,65
2018-08-22T15:06:09.995Z,65
2018-08-22T15:07:00.319Z,64.9
2018-08-22T15:07:49.841Z,64.9
2018-08-22T15:08:40.180Z,64.9
2018-08-22T15:09:30.228Z,64.9
2018-08-22T15:10:20.116Z,64.9
2018-08-22T15:11:09.826Z,64.9
2018-08-22T15:11:59.886Z,64.9
2018-08-22T15:12:51.545Z,64.9
2018-08-22T15:13:40.571Z,64.9
2018-08-22T15:14:30.895Z,64.9
2018-08-22T15:15:21.052Z,64.9
2018-08-22T15:16:11.051Z,64.9
2018-08-22T15:17:01.105Z,64.9
2018-08-22T15:17:50.892Z,64.9
2018-08-22T15:18:40.978Z,64.9
2018-08-22T15:19:30.728Z,64.9
2018-08-22T15:20:20.573Z,64.9
2018-08-22T15:21:11.154Z,64.9
2018-08-22T15:22:01.215Z,64.9
2018-08-22T15:22:51.540Z,64.9
2018-08-22T15:23:41.325Z,64.8
2018-08-22T15:24:31.394Z,64.8
2018-08-22T15:25:21.798Z,64.8
2018-08-22T15:26:11.520Z,64.8
2018-08-22T15:27:01.914Z,64.8
2018-08-22T15:27:51.963Z,64.8
2018-08-22T15:28:41.994Z,64.8
2018-08-22T15:29:32.063Z,64.8
2018-08-22T15:30:22.116Z,64.8
2018-08-22T15:31:12.178Z,64.8
2018-08-22T15:32:01.713Z,64.8
2018-08-22T15:32:52.041Z,64.8
2018-08-22T15:33:42.382Z,64.8
2018-08-22T15:34:32.169Z,64.8
2018-08-22T15:35:22.262Z,64.8
2018-08-22T15:36:12.053Z,64.8
2018-08-22T15:37:02.692Z,64.8
2018-08-22T15:37:52.747Z,64.8
2018-08-22T15:38:42.527Z,64.7
2018-08-22T15:39:32.289Z,64.7
2018-08-22T15:40:22.948Z,64.7
2018-08-22T15:41:13.208Z,64.7
2018-08-22T15:42:04.106Z,64.7
2018-08-22T15:42:52.855Z,64.7
2018-08-22T15:43:42.929Z,64.7
2018-08-22T15:44:33.000Z,64.7
2018-08-22T15:45:23.333Z,64.7
2018-08-22T15:46:13.477Z,64.7
2018-08-22T15:47:02.629Z,64.7
2018-08-22T15:47:53.246Z,64.7
2018-08-22T15:48:43.329Z,64.6
2018-08-22T15:49:33.386Z,64.6
2018-08-22T15:50:23.436Z,64.6
2018-08-22T15:51:13.251Z,64.6
2018-08-22T15:52:03.314Z,64.6
2018-08-22T15:52:53.592Z,64.6
2018-08-22T15:53:43.956Z,64.6
2018-08-22T15:54:33.800Z,64.6
2018-08-22T15:55:24.099Z,64.6
2018-08-22T15:56:13.601Z,64.6
2018-08-22T15:57:04.244Z,64.6
2018-08-22T16:16:19.625Z,64.4
2018-08-22T16:17:09.711Z,64.4
2018-08-22T16:17:59.507Z,64.4
2018-08-22T16:18:48.994Z,64.4
2018-08-22T16:19:39.596Z,64.4
2018-08-22T16:20:29.643Z,64.4
2018-08-22T16:21:20.015Z,64.4
2018-08-22T16:22:09.815Z,64.4
2018-08-22T16:23:00.147Z,64.4
2018-08-22T16:23:49.680Z,64.4
2018-08-22T16:24:40.400Z,64.4
2018-08-22T16:25:30.306Z,64.4
2018-08-22T16:26:19.883Z,64.4
2018-08-22T16:27:10.233Z,64.4
2018-08-22T16:27:59.990Z,64.4
2018-08-22T16:28:50.634Z,64.4
2018-08-22T16:29:40.196Z,64.3
2018-08-22T16:30:31.006Z,64.4
2018-08-22T16:31:20.655Z,64.4
2018-08-22T16:32:10.139Z,64.3
2018-08-22T16:33:00.162Z,64.3
2018-08-22T16:33:50.517Z,64.3
2018-08-22T16:34:41.042Z,64.3
2018-08-22T16:35:31.137Z,64.3
2018-08-22T16:36:20.380Z,64.3
2018-08-22T16:37:11.240Z,64.3
2018-08-22T16:38:01.329Z,64.3
2018-08-22T16:38:51.402Z,64.3
2018-08-22T16:39:40.639Z,64.3
2018-08-22T16:40:31.499Z,64.3
2018-08-22T16:41:21.326Z,64.3
2018-08-22T16:42:10.951Z,64.3
2018-08-22T16:43:01.442Z,64.3
2018-08-22T16:43:51.756Z,64.3
2018-08-22T16:44:41.838Z,64.3
2018-08-22T16:45:31.642Z,64.3
2018-08-22T16:46:21.980Z,64.3
2018-08-22T16:47:12.070Z,64.2
2018-08-22T16:48:01.821Z,64.2
2018-08-22T16:48:52.183Z,64.2
2018-08-22T16:49:41.683Z,64.2
2018-08-22T16:50:32.323Z,64.2
2018-08-22T16:51:22.112Z,64.2
2018-08-22T16:52:12.158Z,64.2
2018-08-22T16:53:02.518Z,64.2
2018-08-22T16:53:52.295Z,64.2
2018-08-22T16:54:42.079Z,64.2
2018-08-22T16:55:32.397Z,64.2
2018-08-22T16:56:22.483Z,64.1
2018-08-22T16:57:12.790Z,64.1
2018-08-22T16:58:02.905Z,64.1
2018-08-22T16:58:52.973Z,64.1
2018-08-22T16:59:42.736Z,64.1
2018-08-22T17:00:32.810Z,64.1
2018-08-22T17:01:22.868Z,64.1
2018-08-22T17:02:13.230Z,64.1
2018-08-22T17:03:03.339Z,64.1
2018-08-22T17:03:52.537Z,64.1
2018-08-22T17:04:42.308Z,64.1
2018-08-22T17:05:33.194Z,64.1
2018-08-22T17:06:22.962Z,64.1
2018-08-22T17:07:13.046Z,64.1
2018-08-22T17:08:03.120Z,64.1
2018-08-22T17:08:53.449Z,64.1
2018-08-22T17:09:43.269Z,64.1
2018-08-22T17:10:33.899Z,64.1
2018-08-22T17:11:23.708Z,64.1
2018-08-22T17:12:13.751Z,64
2018-08-22T17:13:03.789Z,64
2018-08-22T17:13:53.391Z,64
2018-08-22T17:14:43.936Z,64
2018-08-22T17:15:34.279Z,64
2018-08-22T17:16:24.361Z,64
2018-08-22T17:17:14.410Z,64
2018-08-22T17:18:04.182Z,64
2018-08-22T17:18:53.763Z,64
2018-08-22T17:19:44.613Z,64
2018-08-22T17:20:34.651Z,64
2018-08-22T17:21:24.691Z,64
2018-08-22T17:22:14.811Z,63.9
2018-08-22T17:23:04.726Z,63.9
2018-08-22T17:23:54.649Z,63.9
2018-08-22T17:24:44.994Z,63.9
2018-08-22T17:25:34.790Z,63.9
2018-08-22T17:26:25.085Z,63.9
2018-08-22T17:27:14.898Z,63.9
2018-08-22T17:28:04.660Z,63.9
2018-08-22T17:28:55.293Z,63.9
2018-08-22T17:29:45.088Z,63.9
2018-08-22T17:30:36.063Z,63.9
2018-08-22T17:31:25.528Z,63.9
2018-08-22T17:32:15.295Z,63.9
2018-08-22T17:33:05.067Z,63.9
2018-08-22T17:33:55.117Z,63.9
2018-08-22T17:34:45.757Z,63.9
2018-08-22T17:35:35.558Z,63.9
2018-08-22T17:36:25.602Z,63.9
2018-08-22T17:37:15.987Z,63.9
2018-08-22T17:38:05.811Z,63.8
2018-08-22T17:38:56.108Z,63.8
2018-08-22T17:39:46.167Z,63.8
2018-08-22T17:40:36.242Z,63.8
2018-08-22T17:41:26.282Z,63.8
2018-08-22T17:42:16.110Z,63.8
2018-08-22T17:43:06.189Z,63.8
2018-08-22T17:43:56.501Z,63.8
2018-08-22T17:44:46.002Z,63.8
2018-08-22T17:45:36.352Z,63.8
2018-08-22T17:46:26.142Z,63.8
2018-08-22T17:47:16.749Z,63.8
2018-08-22T17:48:06.533Z,63.8
2018-08-22T17:48:56.872Z,63.8
2018-08-22T17:49:46.949Z,63.8
2018-08-22T17:50:35.985Z,63.8
2018-08-22T17:51:26.533Z,63.8
2018-08-22T17:52:17.160Z,63.8
2018-08-22T17:53:07.024Z,63.8
2018-08-22T17:53:56.437Z,63.7
2018-08-22T17:54:47.024Z,63.7
2018-08-22T17:55:37.399Z,63.7
2018-08-22T17:56:27.451Z,63.7
2018-08-22T17:57:17.276Z,63.7
2018-08-22T17:58:07.619Z,63.7
2018-08-22T17:58:57.410Z,63.7
2018-08-22T17:59:47.768Z,63.7
2018-08-22T18:00:37.203Z,63.7
2018-08-22T18:01:27.596Z,63.7
2018-08-22T18:02:17.947Z,63.7
2018-08-22T18:03:07.973Z,63.7
2018-08-22T18:03:57.533Z,63.6
2018-08-22T18:04:47.840Z,63.6
2018-08-22T18:05:37.988Z,63.6
2018-08-22T18:06:29.398Z,63.6
2018-08-22T18:07:18.021Z,63.6
2018-08-22T18:08:08.340Z,63.6
2018-08-22T18:08:58.430Z,63.6
2018-08-22T18:09:48.193Z,63.6
2018-08-22T18:10:37.991Z,63.6
2018-08-22T18:11:28.613Z,63.6
2018-08-22T18:12:18.129Z,63.6
2018-08-22T18:13:08.792Z,63.6
2018-08-22T18:13:59.368Z,63.6
2018-08-22T18:14:48.915Z,63.6
2018-08-22T18:15:38.417Z,63.6
2018-08-22T18:16:28.797Z,63.6
2018-08-22T18:17:18.553Z,63.6
2018-08-22T18:18:09.149Z,63.6
2018-08-22T18:18:58.393Z,63.5
2018-08-22T18:19:49.033Z,63.6
2018-08-22T18:20:39.112Z,63.5
2018-08-22T18:21:28.870Z,63.5
2018-08-22T18:22:18.772Z,63.5
2018-08-22T18:23:09.271Z,63.5
2018-08-22T18:23:59.358Z,63.5
2018-08-22T18:24:49.673Z,63.5
2018-08-22T18:25:39.768Z,63.5
2018-08-22T18:26:29.829Z,63.5
2018-08-22T18:27:20.297Z,63.5
2018-08-22T18:28:09.073Z,63.5
2018-08-22T18:28:59.742Z,63.5
2018-08-22T18:29:49.520Z,63.4
2018-08-22T18:30:39.582Z,63.4
2018-08-22T18:31:30.198Z,63.4
2018-08-22T18:32:20.295Z,63.4
2018-08-22T18:33:09.806Z,63.4
2018-08-22T18:34:00.174Z,63.4
2018-08-22T18:34:50.431Z,63.4
2018-08-22T18:35:40.500Z,63.4
2018-08-22T18:36:30.340Z,63.4
2018-08-22T18:37:20.349Z,63.4
2018-08-22T18:38:10.739Z,63.4
2018-08-22T18:39:00.470Z,63.4
2018-08-22T18:39:50.312Z,63.4
2018-08-22T18:40:40.904Z,63.4
2018-08-22T18:41:30.712Z,63.4
2018-08-22T18:42:21.095Z,63.4